Sedgefield, United Kingdom
Current Conditions -  °F | °C
As of 10:50 AM on Saturday 25 Oct 2014 (Local Time) from EGNV Reporting Station
Scattered Clouds Scattered Clouds  
Wind Chill: 11°   Ceiling: Unl
Heat Index: 11°   Visibility: 6mi
Dew Point:   Wind: 15mph
Humidity: 76%   Direction: 180°S
Pressure: 29.85"   Gusts: NA
Location:  54.65°N, 1.45°W
Report Text: EGNV 250950Z 18013KT 9999 FEW023 SCT036 11/07 Q1011
Loading
Personal Weather Stations






























Interactive Weather Map
Tropical Storm Tracking
New forecast layout! Learn more

10-Day Weather Forecast

Advertisements
Track Severe Weather on mobile